sensor_id;sensor_type;location;lat;lon;timestamp;temperature;humidity
80577;DHT22;69937;52.420;10.538;2023-05-10T00:03:16;12.90;56.10
80577;DHT22;69937;52.420;10.538;2023-05-10T00:08:17;12.80;56.50
80577;DHT22;69937;52.420;10.538;2023-05-10T00:13:17;12.70;56.70
80577;DHT22;69937;52.420;10.538;2023-05-10T00:18:18;12.60;56.70
80577;DHT22;69937;52.420;10.538;2023-05-10T00:23:19;12.50;56.90
80577;DHT22;69937;52.420;10.538;2023-05-10T00:28:19;12.50;57.00
80577;DHT22;69937;52.420;10.538;2023-05-10T00:33:20;12.30;57.60
80577;DHT22;69937;52.420;10.538;2023-05-10T00:38:21;12.30;57.50
80577;DHT22;69937;52.420;10.538;2023-05-10T00:43:21;12.20;57.70
80577;DHT22;69937;52.420;10.538;2023-05-10T00:48:22;12.10;58.00
80577;DHT22;69937;52.420;10.538;2023-05-10T00:53:23;12.10;58.00
80577;DHT22;69937;52.420;10.538;2023-05-10T00:58:24;12.00;58.20
80577;DHT22;69937;52.420;10.538;2023-05-10T01:03:29;12.00;58.30
80577;DHT22;69937;52.420;10.538;2023-05-10T01:08:29;12.00;58.20
80577;DHT22;69937;52.420;10.538;2023-05-10T01:13:35;12.00;58.40
80577;DHT22;69937;52.420;10.538;2023-05-10T01:18:41;11.90;58.60
80577;DHT22;69937;52.420;10.538;2023-05-10T01:23:59;11.90;58.80
80577;DHT22;69937;52.420;10.538;2023-05-10T01:34:10;11.70;59.20
80577;DHT22;69937;52.420;10.538;2023-05-10T01:49:57;11.50;59.60
80577;DHT22;69937;52.420;10.538;2023-05-10T01:55:04;11.50;59.80
80577;DHT22;69937;52.420;10.538;2023-05-10T02:00:08;11.50;59.80
80577;DHT22;69937;52.420;10.538;2023-05-10T02:05:09;11.40;59.90
80577;DHT22;69937;52.420;10.538;2023-05-10T02:10:13;11.40;59.90
80577;DHT22;69937;52.420;10.538;2023-05-10T02:15:20;11.30;60.00
80577;DHT22;69937;52.420;10.538;2023-05-10T02:20:22;11.30;60.10
80577;DHT22;69937;52.420;10.538;2023-05-10T02:25:24;11.20;60.30
80577;DHT22;69937;52.420;10.538;2023-05-10T02:30:26;11.20;60.30
80577;DHT22;69937;52.420;10.538;2023-05-10T02:35:27;11.10;60.30
80577;DHT22;69937;52.420;10.538;2023-05-10T02:40:28;11.20;60.50
80577;DHT22;69937;52.420;10.538;2023-05-10T02:45:31;11.20;60.40
80577;DHT22;69937;52.420;10.538;2023-05-10T02:50:33;11.20;60.40
80577;DHT22;69937;52.420;10.538;2023-05-10T02:55:37;11.10;60.40
80577;DHT22;69937;52.420;10.538;2023-05-10T03:00:38;11.10;60.50
80577;DHT22;69937;52.420;10.538;2023-05-10T03:05:38;11.00;60.90
80577;DHT22;69937;52.420;10.538;2023-05-10T03:10:51;11.00;61.20
80577;DHT22;69937;52.420;10.538;2023-05-10T03:16:12;11.00;61.20
80577;DHT22;69937;52.420;10.538;2023-05-10T03:21:17;11.00;61.40
80577;DHT22;69937;52.420;10.538;2023-05-10T03:26:22;10.90;61.40
80577;DHT22;69937;52.420;10.538;2023-05-10T03:31:24;10.90;61.40
80577;DHT22;69937;52.420;10.538;2023-05-10T03:36:24;10.90;61.80
80577;DHT22;69937;52.420;10.538;2023-05-10T03:41:25;10.90;61.70
80577;DHT22;69937;52.420;10.538;2023-05-10T03:46:25;10.90;61.90
80577;DHT22;69937;52.420;10.538;2023-05-10T03:51:26;10.90;62.00
80577;DHT22;69937;52.420;10.538;2023-05-10T03:56:28;10.90;61.90
80577;DHT22;69937;52.420;10.538;2023-05-10T04:01:28;10.90;62.00
80577;DHT22;69937;52.420;10.538;2023-05-10T04:06:29;10.90;62.00
80577;DHT22;69937;52.420;10.538;2023-05-10T04:11:30;10.90;62.10
80577;DHT22;69937;52.420;10.538;2023-05-10T04:16:30;11.00;61.90
80577;DHT22;69937;52.420;10.538;2023-05-10T04:21:31;11.00;61.90
80577;DHT22;69937;52.420;10.538;2023-05-10T04:26:31;11.10;62.20
80577;DHT22;69937;52.420;10.538;2023-05-10T04:31:32;11.10;62.30
80577;DHT22;69937;52.420;10.538;2023-05-10T04:36:32;11.10;62.40
80577;DHT22;69937;52.420;10.538;2023-05-10T04:41:35;11.30;62.30
80577;DHT22;69937;52.420;10.538;2023-05-10T04:46:37;11.40;62.10
80577;DHT22;69937;52.420;10.538;2023-05-10T04:51:38;11.50;62.10
80577;DHT22;69937;52.420;10.538;2023-05-10T04:56:38;11.50;62.30
80577;DHT22;69937;52.420;10.538;2023-05-10T05:01:39;11.50;62.30
80577;DHT22;69937;52.420;10.538;2023-05-10T05:06:40;11.50;62.40
80577;DHT22;69937;52.420;10.538;2023-05-10T05:11:40;11.60;62.50
80577;DHT22;69937;52.420;10.538;2023-05-10T05:16:41;11.60;62.80
80577;DHT22;69937;52.420;10.538;2023-05-10T05:21:41;11.70;62.50
80577;DHT22;69937;52.420;10.538;2023-05-10T05:26:42;11.70;62.40
80577;DHT22;69937;52.420;10.538;2023-05-10T05:31:42;11.80;62.20
80577;DHT22;69937;52.420;10.538;2023-05-10T05:36:43;11.90;62.20
80577;DHT22;69937;52.420;10.538;2023-05-10T05:41:43;11.90;62.20
80577;DHT22;69937;52.420;10.538;2023-05-10T05:46:44;12.00;61.70
80577;DHT22;69937;52.420;10.538;2023-05-10T05:51:44;12.10;62.10
80577;DHT22;69937;52.420;10.538;2023-05-10T05:56:45;12.20;62.20
80577;DHT22;69937;52.420;10.538;2023-05-10T06:01:46;12.20;62.60
80577;DHT22;69937;52.420;10.538;2023-05-10T06:06:46;12.30;62.60
80577;DHT22;69937;52.420;10.538;2023-05-10T06:11:47;12.50;63.10
80577;DHT22;69937;52.420;10.538;2023-05-10T06:16:47;12.50;62.60
80577;DHT22;69937;52.420;10.538;2023-05-10T06:21:48;12.50;63.20
80577;DHT22;69937;52.420;10.538;2023-05-10T06:26:48;12.70;63.70
80577;DHT22;69937;52.420;10.538;2023-05-10T06:31:50;12.80;62.10
80577;DHT22;69937;52.420;10.538;2023-05-10T06:36:50;12.80;62.90
80577;DHT22;69937;52.420;10.538;2023-05-10T06:41:51;12.80;61.60
80577;DHT22;69937;52.420;10.538;2023-05-10T06:46:52;12.90;61.80
80577;DHT22;69937;52.420;10.538;2023-05-10T06:51:55;13.00;62.50
80577;DHT22;69937;52.420;10.538;2023-05-10T06:56:56;13.10;62.60
80577;DHT22;69937;52.420;10.538;2023-05-10T07:01:56;13.30;60.70
80577;DHT22;69937;52.420;10.538;2023-05-10T07:06:57;13.30;60.80
80577;DHT22;69937;52.420;10.538;2023-05-10T07:11:58;13.40;59.90
80577;DHT22;69937;52.420;10.538;2023-05-10T07:16:58;13.50;59.70
80577;DHT22;69937;52.420;10.538;2023-05-10T07:21:59;13.40;60.50
80577;DHT22;69937;52.420;10.538;2023-05-10T07:26:59;13.30;62.00
80577;DHT22;69937;52.420;10.538;2023-05-10T07:32:00;13.20;62.50
80577;DHT22;69937;52.420;10.538;2023-05-10T07:37:01;13.10;63.20
80577;DHT22;69937;52.420;10.538;2023-05-10T07:42:02;13.10;64.00
80577;DHT22;69937;52.420;10.538;2023-05-10T07:47:03;13.10;64.40
80577;DHT22;69937;52.420;10.538;2023-05-10T07:52:03;13.10;64.70
80577;DHT22;69937;52.420;10.538;2023-05-10T07:57:04;13.10;64.90
80577;DHT22;69937;52.420;10.538;2023-05-10T08:02:05;13.10;65.70
80577;DHT22;69937;52.420;10.538;2023-05-10T08:07:06;13.10;66.10
80577;DHT22;69937;52.420;10.538;2023-05-10T08:12:06;13.30;66.60
80577;DHT22;69937;52.420;10.538;2023-05-10T08:17:07;13.30;67.30
80577;DHT22;69937;52.420;10.538;2023-05-10T08:22:07;13.30;68.50
80577;DHT22;69937;52.420;10.538;2023-05-10T08:27:08;13.30;68.70
80577;DHT22;69937;52.420;10.538;2023-05-10T08:32:09;13.50;69.00
80577;DHT22;69937;52.420;10.538;2023-05-10T08:37:09;13.50;69.50
80577;DHT22;69937;52.420;10.538;2023-05-10T08:42:16;13.40;70.90
80577;DHT22;69937;52.420;10.538;2023-05-10T08:47:18;13.30;71.20
80577;DHT22;69937;52.420;10.538;2023-05-10T08:52:20;13.30;72.00
80577;DHT22;69937;52.420;10.538;2023-05-10T08:57:21;13.30;72.60
80577;DHT22;69937;52.420;10.538;2023-05-10T09:02:23;13.30;73.30
80577;DHT22;69937;52.420;10.538;2023-05-10T09:07:23;13.20;74.10
80577;DHT22;69937;52.420;10.538;2023-05-10T09:12:24;13.20;74.80
80577;DHT22;69937;52.420;10.538;2023-05-10T09:17:25;13.20;76.00
80577;DHT22;69937;52.420;10.538;2023-05-10T09:22:26;13.30;75.30
80577;DHT22;69937;52.420;10.538;2023-05-10T09:27:27;13.30;76.40
80577;DHT22;69937;52.420;10.538;2023-05-10T09:32:40;13.40;76.40
80577;DHT22;69937;52.420;10.538;2023-05-10T09:37:42;13.50;76.90
80577;DHT22;69937;52.420;10.538;2023-05-10T09:47:55;13.70;76.00
80577;DHT22;69937;52.420;10.538;2023-05-10T09:52:57;13.60;75.60
80577;DHT22;69937;52.420;10.538;2023-05-10T09:58:00;13.50;76.60
80577;DHT22;69937;52.420;10.538;2023-05-10T10:03:01;13.60;76.90
80577;DHT22;69937;52.420;10.538;2023-05-10T10:08:04;13.50;76.50
80577;DHT22;69937;52.420;10.538;2023-05-10T10:13:05;13.50;77.20
80577;DHT22;69937;52.420;10.538;2023-05-10T10:18:05;13.50;77.80
80577;DHT22;69937;52.420;10.538;2023-05-10T10:23:08;13.50;78.30
80577;DHT22;69937;52.420;10.538;2023-05-10T10:28:44;13.50;78.00
80577;DHT22;69937;52.420;10.538;2023-05-10T10:39:09;14.00;77.90
80577;DHT22;69937;52.420;10.538;2023-05-10T10:49:26;14.20;76.70
80577;DHT22;69937;52.420;10.538;2023-05-10T10:54:28;14.30;75.70
80577;DHT22;69937;52.420;10.538;2023-05-10T10:59:28;14.40;75.10
80577;DHT22;69937;52.420;10.538;2023-05-10T11:04:41;14.50;74.60
80577;DHT22;69937;52.420;10.538;2023-05-10T11:09:43;14.50;75.50
80577;DHT22;69937;52.420;10.538;2023-05-10T11:14:49;14.40;76.00
80577;DHT22;69937;52.420;10.538;2023-05-10T11:20:09;14.40;75.60
80577;DHT22;69937;52.420;10.538;2023-05-10T11:25:10;14.30;75.80
80577;DHT22;69937;52.420;10.538;2023-05-10T11:30:11;14.10;75.50
80577;DHT22;69937;52.420;10.538;2023-05-10T11:35:12;14.00;76.10
80577;DHT22;69937;52.420;10.538;2023-05-10T11:40:13;14.00;77.20
80577;DHT22;69937;52.420;10.538;2023-05-10T11:45:14;14.00;77.10
80577;DHT22;69937;52.420;10.538;2023-05-10T11:50:16;14.10;77.00
80577;DHT22;69937;52.420;10.538;2023-05-10T11:55:17;14.20;77.50
80577;DHT22;69937;52.420;10.538;2023-05-10T12:00:18;14.30;76.80
80577;DHT22;69937;52.420;10.538;2023-05-10T12:05:18;14.30;76.20
80577;DHT22;69937;52.420;10.538;2023-05-10T12:10:25;14.40;76.10
80577;DHT22;69937;52.420;10.538;2023-05-10T12:15:27;14.60;75.60
80577;DHT22;69937;52.420;10.538;2023-05-10T12:20:28;14.80;75.90
80577;DHT22;69937;52.420;10.538;2023-05-10T12:25:36;15.00;74.20
80577;DHT22;69937;52.420;10.538;2023-05-10T12:30:37;15.20;73.00
80577;DHT22;69937;52.420;10.538;2023-05-10T12:36:05;15.40;72.10
80577;DHT22;69937;52.420;10.538;2023-05-10T12:41:07;15.40;72.00
80577;DHT22;69937;52.420;10.538;2023-05-10T12:46:13;15.60;71.50
80577;DHT22;69937;52.420;10.538;2023-05-10T12:51:14;15.90;71.10
80577;DHT22;69937;52.420;10.538;2023-05-10T12:56:17;16.10;70.10
80577;DHT22;69937;52.420;10.538;2023-05-10T13:01:17;16.40;68.50
80577;DHT22;69937;52.420;10.538;2023-05-10T13:06:18;16.60;68.60
80577;DHT22;69937;52.420;10.538;2023-05-10T13:11:18;17.00;67.20
80577;DHT22;69937;52.420;10.538;2023-05-10T13:16:20;17.20;66.40
80577;DHT22;69937;52.420;10.538;2023-05-10T13:21:21;17.20;66.30
80577;DHT22;69937;52.420;10.538;2023-05-10T13:26:21;17.20;67.20
80577;DHT22;69937;52.420;10.538;2023-05-10T13:31:22;17.20;67.10
80577;DHT22;69937;52.420;10.538;2023-05-10T13:36:22;17.40;66.80
80577;DHT22;69937;52.420;10.538;2023-05-10T13:41:23;17.50;67.20
80577;DHT22;69937;52.420;10.538;2023-05-10T13:46:23;17.60;66.20
80577;DHT22;69937;52.420;10.538;2023-05-10T13:51:24;17.70;66.20
80577;DHT22;69937;52.420;10.538;2023-05-10T13:56:25;17.80;66.40
80577;DHT22;69937;52.420;10.538;2023-05-10T14:01:25;18.00;65.00
80577;DHT22;69937;52.420;10.538;2023-05-10T14:06:27;18.10;63.80
80577;DHT22;69937;52.420;10.538;2023-05-10T14:11:27;18.10;65.10
80577;DHT22;69937;52.420;10.538;2023-05-10T14:16:28;18.10;65.00
80577;DHT22;69937;52.420;10.538;2023-05-10T14:21:29;18.10;64.10
80577;DHT22;69937;52.420;10.538;2023-05-10T14:26:32;17.80;65.10
80577;DHT22;69937;52.420;10.538;2023-05-10T14:31:33;17.50;64.90
80577;DHT22;69937;52.420;10.538;2023-05-10T14:36:34;17.50;65.90
80577;DHT22;69937;52.420;10.538;2023-05-10T14:41:34;17.20;65.80
80577;DHT22;69937;52.420;10.538;2023-05-10T14:46:35;17.30;66.50
80577;DHT22;69937;52.420;10.538;2023-05-10T14:51:36;17.20;66.00
80577;DHT22;69937;52.420;10.538;2023-05-10T14:56:37;17.40;65.40
80577;DHT22;69937;52.420;10.538;2023-05-10T15:01:38;17.40;63.80
80577;DHT22;69937;52.420;10.538;2023-05-10T15:06:41;17.40;64.90
80577;DHT22;69937;52.420;10.538;2023-05-10T15:11:45;17.40;65.50
80577;DHT22;69937;52.420;10.538;2023-05-10T15:16:45;17.40;64.50
80577;DHT22;69937;52.420;10.538;2023-05-10T15:21:47;17.40;65.60
80577;DHT22;69937;52.420;10.538;2023-05-10T15:26:47;17.50;64.10
80577;DHT22;69937;52.420;10.538;2023-05-10T15:31:49;17.70;64.80
80577;DHT22;69937;52.420;10.538;2023-05-10T15:36:50;17.80;65.50
80577;DHT22;69937;52.420;10.538;2023-05-10T15:41:51;18.00;63.60
80577;DHT22;69937;52.420;10.538;2023-05-10T15:46:51;18.10;63.60
80577;DHT22;69937;52.420;10.538;2023-05-10T15:51:52;18.20;63.30
80577;DHT22;69937;52.420;10.538;2023-05-10T15:56:52;18.30;63.10
80577;DHT22;69937;52.420;10.538;2023-05-10T16:01:54;18.20;63.40
80577;DHT22;69937;52.420;10.538;2023-05-10T16:06:55;18.20;63.40
80577;DHT22;69937;52.420;10.538;2023-05-10T16:11:55;18.30;63.20
80577;DHT22;69937;52.420;10.538;2023-05-10T16:16:56;18.30;62.40
80577;DHT22;69937;52.420;10.538;2023-05-10T16:21:56;18.10;63.20
80577;DHT22;69937;52.420;10.538;2023-05-10T16:26:57;17.90;64.20
80577;DHT22;69937;52.420;10.538;2023-05-10T16:31:57;17.70;63.10
80577;DHT22;69937;52.420;10.538;2023-05-10T16:36:58;17.20;64.10
80577;DHT22;69937;52.420;10.538;2023-05-10T16:41:58;16.90;64.20
80577;DHT22;69937;52.420;10.538;2023-05-10T16:46:59;16.60;65.00
80577;DHT22;69937;52.420;10.538;2023-05-10T16:51:59;16.50;65.50
80577;DHT22;69937;52.420;10.538;2023-05-10T16:57:00;16.40;66.00
80577;DHT22;69937;52.420;10.538;2023-05-10T17:02:01;16.30;67.40
80577;DHT22;69937;52.420;10.538;2023-05-10T17:07:02;16.10;67.40
80577;DHT22;69937;52.420;10.538;2023-05-10T17:12:02;16.00;67.50
80577;DHT22;69937;52.420;10.538;2023-05-10T17:17:03;15.90;68.20
80577;DHT22;69937;52.420;10.538;2023-05-10T17:22:04;15.80;69.00
80577;DHT22;69937;52.420;10.538;2023-05-10T17:27:05;15.80;69.20
80577;DHT22;69937;52.420;10.538;2023-05-10T17:32:06;15.60;69.00
80577;DHT22;69937;52.420;10.538;2023-05-10T17:37:08;15.40;69.80
80577;DHT22;69937;52.420;10.538;2023-05-10T17:42:09;15.20;70.60
80577;DHT22;69937;52.420;10.538;2023-05-10T17:47:09;15.20;70.30
80577;DHT22;69937;52.420;10.538;2023-05-10T17:52:10;15.10;70.70
80577;DHT22;69937;52.420;10.538;2023-05-10T17:57:11;15.20;71.50
80577;DHT22;69937;52.420;10.538;2023-05-10T18:02:12;15.10;71.60
80577;DHT22;69937;52.420;10.538;2023-05-10T18:07:13;15.00;71.40
80577;DHT22;69937;52.420;10.538;2023-05-10T18:12:13;15.00;71.10
80577;DHT22;69937;52.420;10.538;2023-05-10T18:17:14;15.00;71.00
80577;DHT22;69937;52.420;10.538;2023-05-10T18:22:14;15.00;70.70
80577;DHT22;69937;52.420;10.538;2023-05-10T18:27:15;15.00;70.50
80577;DHT22;69937;52.420;10.538;2023-05-10T18:32:15;15.00;70.50
80577;DHT22;69937;52.420;10.538;2023-05-10T18:37:16;14.90;70.50
80577;DHT22;69937;52.420;10.538;2023-05-10T18:42:17;14.90;70.80
80577;DHT22;69937;52.420;10.538;2023-05-10T18:47:19;14.90;70.70
80577;DHT22;69937;52.420;10.538;2023-05-10T18:52:20;14.90;70.90
80577;DHT22;69937;52.420;10.538;2023-05-10T18:57:20;14.90;70.70
80577;DHT22;69937;52.420;10.538;2023-05-10T19:02:21;14.80;71.30
80577;DHT22;69937;52.420;10.538;2023-05-10T19:07:24;14.70;72.80
80577;DHT22;69937;52.420;10.538;2023-05-10T19:12:25;14.60;73.30
80577;DHT22;69937;52.420;10.538;2023-05-10T19:17:25;14.50;73.30
80577;DHT22;69937;52.420;10.538;2023-05-10T19:22:26;14.50;73.50
80577;DHT22;69937;52.420;10.538;2023-05-10T19:27:26;14.40;73.20
80577;DHT22;69937;52.420;10.538;2023-05-10T19:32:36;14.40;73.50
80577;DHT22;69937;52.420;10.538;2023-05-10T19:37:41;14.40;73.50
80577;DHT22;69937;52.420;10.538;2023-05-10T19:42:46;14.40;74.10
80577;DHT22;69937;52.420;10.538;2023-05-10T19:47:47;14.40;73.80
80577;DHT22;69937;52.420;10.538;2023-05-10T19:52:49;14.40;73.60
80577;DHT22;69937;52.420;10.538;2023-05-10T19:57:51;14.40;73.50
80577;DHT22;69937;52.420;10.538;2023-05-10T20:02:52;14.50;73.50
80577;DHT22;69937;52.420;10.538;2023-05-10T20:07:54;14.40;73.50
80577;DHT22;69937;52.420;10.538;2023-05-10T20:12:55;14.40;74.00
80577;DHT22;69937;52.420;10.538;2023-05-10T20:17:59;14.30;74.10
80577;DHT22;69937;52.420;10.538;2023-05-10T20:22:59;14.30;74.20
80577;DHT22;69937;52.420;10.538;2023-05-10T20:28:01;14.20;74.80
80577;DHT22;69937;52.420;10.538;2023-05-10T20:33:03;14.20;75.00
80577;DHT22;69937;52.420;10.538;2023-05-10T20:38:03;14.10;74.90
80577;DHT22;69937;52.420;10.538;2023-05-10T20:43:10;14.10;75.00
80577;DHT22;69937;52.420;10.538;2023-05-10T20:48:11;14.10;75.00
80577;DHT22;69937;52.420;10.538;2023-05-10T20:53:12;14.10;74.40
80577;DHT22;69937;52.420;10.538;2023-05-10T20:58:14;14.10;74.20
80577;DHT22;69937;52.420;10.538;2023-05-10T21:03:15;14.10;74.30
80577;DHT22;69937;52.420;10.538;2023-05-10T21:08:16;14.10;74.30
80577;DHT22;69937;52.420;10.538;2023-05-10T21:13:20;14.10;74.40
80577;DHT22;69937;52.420;10.538;2023-05-10T21:18:21;14.00;74.70
80577;DHT22;69937;52.420;10.538;2023-05-10T21:23:22;13.90;74.80
80577;DHT22;69937;52.420;10.538;2023-05-10T21:28:25;13.90;74.90
80577;DHT22;69937;52.420;10.538;2023-05-10T21:33:26;13.80;75.20
80577;DHT22;69937;52.420;10.538;2023-05-10T21:38:28;13.70;75.20
80577;DHT22;69937;52.420;10.538;2023-05-10T21:43:29;13.60;75.10
80577;DHT22;69937;52.420;10.538;2023-05-10T21:48:33;13.50;75.20
80577;DHT22;69937;52.420;10.538;2023-05-10T21:53:37;13.50;75.30
80577;DHT22;69937;52.420;10.538;2023-05-10T21:58:38;13.50;75.30
80577;DHT22;69937;52.420;10.538;2023-05-10T22:03:39;13.50;76.10
80577;DHT22;69937;52.420;10.538;2023-05-10T22:08:41;13.50;75.90
80577;DHT22;69937;52.420;10.538;2023-05-10T22:13:43;13.40;75.40
80577;DHT22;69937;52.420;10.538;2023-05-10T22:18:46;13.30;75.50
80577;DHT22;69937;52.420;10.538;2023-05-10T22:23:47;13.30;75.40
80577;DHT22;69937;52.420;10.538;2023-05-10T22:28:48;13.20;75.40
80577;DHT22;69937;52.420;10.538;2023-05-10T22:33:48;13.10;75.50
80577;DHT22;69937;52.420;10.538;2023-05-10T22:38:49;13.10;75.50
80577;DHT22;69937;52.420;10.538;2023-05-10T22:43:50;13.00;75.60
80577;DHT22;69937;52.420;10.538;2023-05-10T22:48:51;13.00;75.60
80577;DHT22;69937;52.420;10.538;2023-05-10T22:53:53;13.00;75.70
80577;DHT22;69937;52.420;10.538;2023-05-10T22:58:53;12.90;75.80
80577;DHT22;69937;52.420;10.538;2023-05-10T23:03:55;12.80;76.20
80577;DHT22;69937;52.420;10.538;2023-05-10T23:08:56;12.80;76.70
80577;DHT22;69937;52.420;10.538;2023-05-10T23:13:56;12.80;76.60
80577;DHT22;69937;52.420;10.538;2023-05-10T23:18:57;12.70;76.90
80577;DHT22;69937;52.420;10.538;2023-05-10T23:23:58;12.70;77.30
80577;DHT22;69937;52.420;10.538;2023-05-10T23:28:59;12.60;76.90
80577;DHT22;69937;52.420;10.538;2023-05-10T23:34:01;12.50;76.80
80577;DHT22;69937;52.420;10.538;2023-05-10T23:39:03;12.50;77.00
80577;DHT22;69937;52.420;10.538;2023-05-10T23:44:05;12.50;77.00
80577;DHT22;69937;52.420;10.538;2023-05-10T23:49:06;12.50;76.30
80577;DHT22;69937;52.420;10.538;2023-05-10T23:54:12;12.30;76.70
80577;DHT22;69937;52.420;10.538;2023-05-10T23:59:14;12.30;77.20
